Time;durP1;ratioP1;P1;durP2;ratioP2;P2;SDS_P1;SDS_P2;PMS_P1;PMS_P2;Temp;Humidity;BMP_temperature;BMP_pressure;BME280_temperature;BME280_humidity;BME280_pressure;Samples;Min_cycle;Max_cycle;Signal;HPM_P1;HPM_P2
2021/05/06 00:33:26;;;;;;;2.63;2.25;;;13.00;52.90;;;;;;6278851;22;20058;-92
2021/05/06 00:35:52;;;;;;;2.90;2.30;;;13.00;52.80;;;;;;6251648;22;20011;-93
2021/05/06 00:38:22;;;;;;;2.47;2.28;;;13.00;52.90;;;;;;6251728;22;20015;-93
2021/05/06 00:57:05;;;;;;;4.15;3.63;;;13.00;53.10;;;;;;6278478;22;20014;-93
2021/05/06 01:12:33;;;;;;;10.48;9.35;;;13.00;53.50;;;;;;6288634;22;19999;-93
2021/05/06 01:14:59;;;;;;;11.13;6.82;;;13.00;53.60;;;;;;6251396;22;20427;-93
2021/05/06 01:17:25;;;;;;;7.45;6.65;;;13.00;53.90;;;;;;6278233;22;19991;-93
2021/05/06 01:19:50;;;;;;;8.40;6.20;;;13.00;54.00;;;;;;6251122;22;20011;-93
2021/05/06 01:22:16;;;;;;;9.15;7.10;;;13.00;54.30;;;;;;6251546;22;20004;-92
2021/05/06 01:24:46;;;;;;;10.02;8.18;;;12.90;54.60;;;;;;6251358;22;20016;-93
2021/05/06 01:27:17;;;;;;;10.65;9.35;;;13.00;54.60;;;;;;6251390;22;20022;-92
2021/05/06 01:30:21;;;;;;;11.38;8.32;;;13.00;54.80;;;;;;6278552;22;20011;-93
2021/05/06 01:32:41;;;;;;;9.50;7.82;;;12.90;54.90;;;;;;6274578;22;20000;-95
2021/05/06 01:35:13;;;;;;;8.40;6.07;;;12.90;55.00;;;;;;6253540;22;20068;-93
2021/05/06 01:48:36;;;;;;;8.52;6.90;;;12.80;56.40;;;;;;6280341;22;20010;-93
2021/05/06 01:59:15;;;;;;;10.30;7.20;;;12.70;58.20;;;;;;6279965;22;19949;-94
2021/05/06 02:01:41;;;;;;;10.90;9.07;;;12.60;58.10;;;;;;6280216;22;20041;-93
2021/05/06 02:04:06;;;;;;;11.60;9.27;;;12.60;58.40;;;;;;6253573;22;20020;-93
2021/05/06 02:06:32;;;;;;;9.27;7.30;;;12.60;58.90;;;;;;6279665;22;20441;-93
2021/05/06 02:08:58;;;;;;;9.38;6.70;;;12.60;59.00;;;;;;6253315;22;20083;-94
2021/05/06 02:11:24;;;;;;;7.70;4.65;;;12.60;59.00;;;;;;6253582;22;20011;-93
2021/05/06 02:13:52;;;;;;;5.57;3.00;;;12.50;59.50;;;;;;6254311;22;19999;-94
2021/05/06 02:16:21;;;;;;;4.60;3.17;;;12.50;59.60;;;;;;6253514;22;20388;-93
2021/05/06 02:18:48;;;;;;;3.33;2.50;;;12.50;59.70;;;;;;6252540;22;20497;-94
2021/05/06 02:21:17;;;;;;;3.63;2.45;;;12.50;60.20;;;;;;6253713;22;20000;-92
2021/05/06 02:23:43;;;;;;;2.78;2.28;;;12.50;60.00;;;;;;6252679;22;20000;-93
2021/05/06 02:26:09;;;;;;;3.38;2.17;;;12.50;60.30;;;;;;6252756;22;19999;-94
2021/05/06 02:28:35;;;;;;;2.80;2.40;;;12.50;60.30;;;;;;6253161;22;20004;-91
2021/05/06 02:31:01;;;;;;;4.05;2.67;;;12.50;60.70;;;;;;6252785;22;20423;-93
2021/05/06 02:33:26;;;;;;;2.63;2.08;;;12.50;60.70;;;;;;6253898;22;20000;-93
2021/05/06 02:35:52;;;;;;;3.17;2.83;;;12.50;60.90;;;;;;6252912;22;20427;-93
2021/05/06 02:38:18;;;;;;;3.03;2.50;;;12.50;61.20;;;;;;6252876;22;20424;-92
2021/05/06 02:40:43;;;;;;;4.13;2.78;;;12.50;61.10;;;;;;6252738;22;20008;-94
2021/05/06 02:43:09;;;;;;;4.13;3.08;;;12.50;61.10;;;;;;6252550;22;20008;-93
2021/05/06 02:45:35;;;;;;;3.85;3.00;;;12.50;60.90;;;;;;6252316;22;20095;-93
2021/05/06 02:48:01;;;;;;;3.60;3.17;;;12.50;61.00;;;;;;6252501;22;20008;-93
2021/05/06 02:50:27;;;;;;;5.47;3.33;;;12.50;61.10;;;;;;6252705;22;20000;-93
2021/05/06 02:53:03;;;;;;;5.95;3.80;;;12.50;60.80;;;;;;6252987;22;20061;-93
2021/05/06 02:58:06;;;;;;;5.38;3.42;;;12.50;60.60;;;;;;6279863;22;20431;-93
2021/05/06 03:03:16;;;;;;;3.95;3.00;;;12.50;60.40;;;;;;6279413;22;20034;-93
2021/05/06 03:05:44;;;;;;;2.22;2.03;;;12.50;60.40;;;;;;6279446;22;20268;-93
2021/05/06 03:08:15;;;;;;;3.33;2.55;;;12.50;60.30;;;;;;6252530;22;20011;-93
2021/05/06 03:23:57;;;;;;;3.92;2.47;;;12.60;59.80;;;;;;6279192;22;20443;-92
2021/05/06 03:26:23;;;;;;;2.47;2.20;;;12.60;59.70;;;;;;6252322;22;20427;-91
2021/05/06 03:28:59;;;;;;;2.58;2.38;;;12.60;59.60;;;;;;6252002;22;20034;-94
2021/05/06 03:42:41;;;;;;;4.32;3.30;;;12.50;59.80;;;;;;6281320;22;20046;-93
2021/05/06 03:48:45;;;;;;;5.65;3.28;;;12.50;59.90;;;;;;6284259;22;20153;-93
2021/05/06 04:36:53;;;;;;;3.83;2.75;;;14.00;57.80;;;;;;6280046;22;20064;-94
2021/05/06 04:38:51;;;;;;;3.42;2.42;;;14.10;57.60;;;;;;6272258;22;20478;-94
2021/05/06 04:54:43;;;;;;;4.22;3.17;;;14.60;55.60;;;;;;6281386;22;20027;-93
2021/05/06 05:04:54;;;;;;;4.38;2.47;;;15.20;54.30;;;;;;6279063;22;20011;-93
2021/05/06 05:07:34;;;;;;;4.32;2.30;;;15.30;54.20;;;;;;6251773;22;20003;-93
2021/05/06 05:10:08;;;;;;;11.45;2.65;;;15.40;53.80;;;;;;6254292;22;20010;-93
2021/05/06 05:20:51;;;;;;;4.68;2.40;;;15.90;52.10;;;;;;6281143;22;20012;-93
2021/05/06 05:23:31;;;;;;;1.77;1.67;;;15.90;51.80;;;;;;6255683;22;19996;-92
2021/05/06 05:26:06;;;;;;;3.25;1.90;;;15.90;52.00;;;;;;6258353;22;20018;-93
2021/05/06 05:28:32;;;;;;;4.18;2.40;;;16.00;51.90;;;;;;6254884;22;20004;-93
2021/05/06 05:30:58;;;;;;;3.88;2.30;;;16.00;51.50;;;;;;6255234;22;20007;-93
2021/05/06 05:33:25;;;;;;;3.70;1.83;;;16.00;51.50;;;;;;6254839;22;20090;-94
2021/05/06 05:43:37;;;;;;;4.85;2.00;;;16.00;51.40;;;;;;6280727;22;20006;-94
2021/05/06 05:56:38;;;;;;;3.50;2.30;;;16.00;51.20;;;;;;6290748;22;20014;-94
2021/05/06 05:59:04;;;;;;;3.53;2.50;;;15.90;51.20;;;;;;6255106;22;20026;-94
2021/05/06 06:01:54;;;;;;;3.17;2.50;;;15.90;51.30;;;;;;6252789;22;20020;-93
2021/05/06 06:04:20;;;;;;;3.28;2.53;;;15.90;51.40;;;;;;6253710;22;20003;-92
2021/05/06 06:06:45;;;;;;;3.05;2.38;;;15.90;51.40;;;;;;6279878;22;20010;-93
2021/05/06 06:09:11;;;;;;;4.43;2.40;;;15.90;51.50;;;;;;6252723;22;20014;-94
2021/05/06 06:11:37;;;;;;;3.53;2.75;;;16.20;51.50;;;;;;6247171;22;20079;-94
2021/05/06 06:14:06;;;;;;;2.67;1.92;;;16.50;51.20;;;;;;6248194;22;20070;-93
2021/05/06 06:16:33;;;;;;;3.65;2.00;;;16.70;50.80;;;;;;6278617;22;20372;-93
2021/05/06 06:19:00;;;;;;;8.07;2.20;;;16.90;50.00;;;;;;6252631;22;20418;-93
2021/05/06 06:21:32;;;;;;;2.75;2.05;;;16.90;49.60;;;;;;6254568;22;20004;-93
2021/05/06 06:23:58;;;;;;;2.72;2.13;;;16.90;49.60;;;;;;6253431;22;20000;-93
2021/05/06 06:26:24;;;;;;;3.47;2.45;;;16.90;49.40;;;;;;6253912;22;20008;-93
2021/05/06 06:28:54;;;;;;;12.63;2.63;;;16.90;49.40;;;;;;6253628;22;19999;-93
2021/05/06 06:33:49;;;;;;;4.97;2.47;;;16.80;49.50;;;;;;6280669;22;20007;-92
2021/05/06 06:36:17;;;;;;;4.28;2.10;;;16.80;49.50;;;;;;6252716;22;20010;-93
2021/05/06 06:38:44;;;;;;;2.75;1.90;;;16.70;49.30;;;;;;6252653;22;20011;-92
2021/05/06 06:41:10;;;;;;;4.10;2.10;;;16.70;49.10;;;;;;6252583;22;20061;-93
2021/05/06 06:43:37;;;;;;;4.95;2.08;;;16.60;48.60;;;;;;6252177;22;20030;-91
2021/05/06 06:46:04;;;;;;;3.30;1.67;;;16.50;48.60;;;;;;6254788;22;20012;-92
2021/05/06 06:48:30;;;;;;;2.47;1.95;;;16.40;48.70;;;;;;6279775;22;20019;-93
2021/05/06 06:50:56;;;;;;;3.80;1.88;;;16.40;48.80;;;;;;6253572;22;20011;-93
2021/05/06 06:53:22;;;;;;;3.00;2.15;;;16.40;48.80;;;;;;6279620;22;20061;-94
2021/05/06 06:55:49;;;;;;;3.55;2.85;;;16.40;49.00;;;;;;6252819;22;20007;-94
2021/05/06 06:58:16;;;;;;;5.63;3.20;;;16.40;48.90;;;;;;6279866;22;19992;-93
2021/05/06 07:00:43;;;;;;;2.47;2.25;;;16.40;49.00;;;;;;6252287;22;20011;-94
2021/05/06 07:03:11;;;;;;;2.78;2.40;;;16.30;49.00;;;;;;6253742;22;20000;-94
2021/05/06 07:05:37;;;;;;;2.83;2.10;;;16.20;49.00;;;;;;6252434;22;20004;-94
2021/05/06 07:08:23;;;;;;;2.55;2.00;;;16.20;49.20;;;;;;6253178;22;20045;-95
2021/05/06 07:10:52;;;;;;;4.82;2.30;;;16.20;49.40;;;;;;6279309;22;20054;-94
2021/05/06 07:13:18;;;;;;;3.95;2.28;;;16.10;49.50;;;;;;6254627;22;20035;-94
2021/05/06 07:16:05;;;;;;;3.35;2.10;;;16.10;50.00;;;;;;6278724;22;19995;-94
2021/05/06 07:18:32;;;;;;;3.47;2.10;;;16.10;49.60;;;;;;6252041;22;20014;-93
2021/05/06 07:20:58;;;;;;;3.05;2.15;;;16.00;49.80;;;;;;6251709;22;20039;-92
2021/05/06 07:23:24;;;;;;;3.13;1.80;;;15.90;50.10;;;;;;6251296;22;20084;-92
2021/05/06 07:25:53;;;;;;;2.55;2.13;;;15.90;50.60;;;;;;6251572;22;20012;-92
2021/05/06 07:28:21;;;;;;;3.70;2.25;;;16.00;51.20;;;;;;6253793;22;20034;-93
2021/05/06 07:30:49;;;;;;;2.65;2.25;;;15.90;51.90;;;;;;6279044;22;20027;-93
2021/05/06 07:33:15;;;;;;;4.53;2.20;;;15.80;52.70;;;;;;6252344;22;20082;-93
2021/05/06 07:35:41;;;;;;;1.92;1.70;;;15.80;53.20;;;;;;6251804;22;20032;-92
2021/05/06 07:38:07;;;;;;;2.85;2.33;;;15.80;53.80;;;;;;6259969;22;20000;-93
2021/05/06 07:40:35;;;;;;;5.85;2.67;;;15.80;55.00;;;;;;6260436;22;20031;-92
2021/05/06 07:43:02;;;;;;;5.20;2.83;;;15.80;55.40;;;;;;6252563;22;20003;-93
2021/05/06 07:45:30;;;;;;;2.65;2.13;;;15.90;55.80;;;;;;6252107;22;20026;-93
2021/05/06 07:47:56;;;;;;;5.95;2.58;;;16.00;55.60;;;;;;6254053;22;20034;-93
2021/05/06 07:50:22;;;;;;;3.45;2.55;;;16.20;55.30;;;;;;6252649;22;20004;-93
2021/05/06 07:52:51;;;;;;;2.45;2.25;;;16.20;54.90;;;;;;6252353;22;20065;-93
2021/05/06 07:55:17;;;;;;;3.63;2.25;;;16.20;55.00;;;;;;6251395;22;20011;-95
2021/05/06 07:57:43;;;;;;;2.72;2.15;;;16.10;55.40;;;;;;6255094;22;20015;-93
2021/05/06 08:00:12;;;;;;;2.97;2.58;;;16.10;55.70;;;;;;6262276;22;20031;-92
2021/05/06 08:02:39;;;;;;;3.00;2.28;;;16.10;55.80;;;;;;6252635;22;20070;-92
2021/05/06 08:05:05;;;;;;;2.83;2.28;;;16.20;56.00;;;;;;6254729;22;20024;-92
2021/05/06 08:07:31;;;;;;;5.78;2.67;;;16.30;56.30;;;;;;6258757;22;20011;-93
2021/05/06 08:09:56;;;;;;;3.40;2.47;;;16.50;56.40;;;;;;6254256;22;20008;-94
2021/05/06 08:12:24;;;;;;;6.63;2.92;;;16.60;56.10;;;;;;6255007;22;20003;-94
2021/05/06 08:14:52;;;;;;;4.32;2.58;;;16.70;55.70;;;;;;6252244;22;20012;-93
2021/05/06 08:17:18;;;;;;;2.92;2.63;;;16.80;55.40;;;;;;6251743;22;20015;-94
2021/05/06 08:19:44;;;;;;;3.30;1.98;;;16.80;55.40;;;;;;6250808;22;20015;-94
2021/05/06 08:22:10;;;;;;;2.22;1.98;;;16.90;55.50;;;;;;6252233;22;20311;-93
2021/05/06 08:24:35;;;;;;;4.70;3.10;;;17.10;55.20;;;;;;6251328;22;20407;-94
2021/05/06 08:27:01;;;;;;;4.90;2.60;;;17.20;54.80;;;;;;6251475;22;20026;-93
2021/05/06 08:29:27;;;;;;;4.72;2.90;;;17.40;54.60;;;;;;6277796;22;19999;-93
2021/05/06 08:31:54;;;;;;;3.05;2.75;;;17.40;54.10;;;;;;6250540;22;20023;-94
2021/05/06 08:34:20;;;;;;;3.53;1.75;;;17.40;54.20;;;;;;6250776;22;20420;-92
2021/05/06 08:36:45;;;;;;;4.75;2.38;;;17.40;54.20;;;;;;6251178;22;20054;-92
2021/05/06 08:39:11;;;;;;;3.40;2.50;;;17.50;54.40;;;;;;6249937;22;20000;-93
2021/05/06 08:41:39;;;;;;;3.17;2.42;;;17.60;54.40;;;;;;6250573;22;20008;-93
2021/05/06 08:44:06;;;;;;;2.47;2.28;;;17.70;54.50;;;;;;6249591;22;20050;-91
2021/05/06 08:46:36;;;;;;;3.22;2.50;;;18.00;54.30;;;;;;6250809;22;20095;-92
2021/05/06 08:49:07;;;;;;;4.93;2.50;;;18.20;54.00;;;;;;6250237;22;20009;-91
2021/05/06 08:51:34;;;;;;;2.40;2.20;;;18.30;53.50;;;;;;6253475;22;20015;-93
2021/05/06 08:54:17;;;;;;;4.72;2.63;;;18.20;53.50;;;;;;6281354;22;20454;-93
2021/05/06 08:56:43;;;;;;;3.78;2.63;;;17.90;53.80;;;;;;6253464;22;20206;-94
2021/05/06 08:59:09;;;;;;;3.95;2.75;;;17.60;54.30;;;;;;6255835;22;20000;-92
2021/05/06 09:01:40;;;;;;;5.90;2.50;;;17.40;55.00;;;;;;6264568;22;20087;-93
2021/05/06 09:04:07;;;;;;;2.85;2.42;;;17.20;55.70;;;;;;6227128;23;20393;-92
2021/05/06 09:06:35;;;;;;;4.93;2.53;;;17.10;56.20;;;;;;6227543;23;20016;-93
2021/05/06 09:09:04;;;;;;;3.45;2.42;;;17.10;56.70;;;;;;6205620;23;20016;-92
2021/05/06 09:11:37;;;;;;;3.72;2.58;;;17.40;57.00;;;;;;6222932;23;20012;-93
2021/05/06 09:14:04;;;;;;;3.97;2.78;;;17.80;56.80;;;;;;6197744;23;20039;-95
2021/05/06 09:16:44;;;;;;;4.22;3.15;;;18.20;56.00;;;;;;6216588;23;20008;-93
2021/05/06 09:19:13;;;;;;;3.35;2.97;;;18.60;55.50;;;;;;6216523;23;20096;-94
2021/05/06 09:21:45;;;;;;;8.57;2.88;;;18.90;54.80;;;;;;6220539;23;20011;-93
2021/05/06 09:24:26;;;;;;;14.17;4.80;;;19.10;54.40;;;;;;6197981;23;20005;-93
2021/05/06 09:26:57;;;;;;;3.72;2.53;;;19.20;53.80;;;;;;6221172;23;20015;-94
2021/05/06 09:29:45;;;;;;;7.43;2.50;;;19.40;53.70;;;;;;6219669;23;20019;-94
2021/05/06 09:32:20;;;;;;;2.95;2.35;;;19.30;53.20;;;;;;6222495;23;19996;-94
2021/05/06 09:34:55;;;;;;;3.63;2.60;;;19.20;53.20;;;;;;6218119;23;20062;-94
2021/05/06 09:37:26;;;;;;;3.05;2.63;;;19.00;53.40;;;;;;6217862;23;20004;-94
2021/05/06 09:40:10;;;;;;;3.65;2.67;;;18.90;54.40;;;;;;6193132;23;20092;-96
2021/05/06 09:42:57;;;;;;;5.32;2.85;;;18.60;54.20;;;;;;6221057;23;20028;-94
2021/05/06 09:45:37;;;;;;;4.13;2.83;;;18.40;55.10;;;;;;6218494;23;20019;-93
2021/05/06 09:48:14;;;;;;;5.10;2.65;;;18.20;55.30;;;;;;6220983;23;20024;-93
2021/05/06 09:50:45;;;;;;;6.47;2.88;;;17.90;56.20;;;;;;6217333;23;20008;-92
2021/05/06 09:53:18;;;;;;;5.43;2.75;;;17.70;57.50;;;;;;6219597;23;20008;-94
2021/05/06 09:55:46;;;;;;;4.20;3.22;;;17.40;58.00;;;;;;6223334;23;20028;-94
2021/05/06 09:58:15;;;;;;;4.45;3.13;;;17.20;58.50;;;;;;6221045;23;20001;-94
2021/05/06 10:00:44;;;;;;;4.05;3.05;;;17.00;59.80;;;;;;6220922;22;20023;-94
2021/05/06 10:03:22;;;;;;;3.42;2.70;;;16.80;59.80;;;;;;6257240;22;20023;-94
2021/05/06 10:05:51;;;;;;;3.40;2.85;;;16.70;60.50;;;;;;6290624;22;20022;-95
2021/05/06 10:08:31;;;;;;;4.28;3.40;;;16.60;61.00;;;;;;6252779;22;20011;-94
2021/05/06 10:11:12;;;;;;;6.05;3.30;;;16.50;62.00;;;;;;6260112;22;20062;-94
2021/05/06 10:13:42;;;;;;;6.22;3.83;;;16.40;63.10;;;;;;6253396;22;20073;-94
2021/05/06 10:16:12;;;;;;;4.10;3.30;;;16.20;63.70;;;;;;6278589;22;20058;-93
2021/05/06 10:18:44;;;;;;;4.65;3.55;;;16.10;63.90;;;;;;6258692;22;20054;-94
2021/05/06 10:21:12;;;;;;;3.22;2.83;;;16.10;64.50;;;;;;6259061;22;20004;-93
2021/05/06 10:23:40;;;;;;;3.80;3.10;;;16.00;64.80;;;;;;6252524;22;20015;-94
2021/05/06 10:26:09;;;;;;;3.13;2.70;;;16.10;65.20;;;;;;6229260;22;20062;-91
2021/05/06 10:28:38;;;;;;;3.72;2.92;;;16.10;65.40;;;;;;6254654;22;20004;-95
2021/05/06 10:31:08;;;;;;;5.38;3.35;;;16.20;65.50;;;;;;6260026;22;20000;-95
2021/05/06 10:33:42;;;;;;;4.75;2.83;;;16.30;65.40;;;;;;6283457;22;20015;-94
2021/05/06 10:36:15;;;;;;;;;;;16.30;64.80;;;;;;6284388;22;20002;-95
2021/05/06 10:38:44;;;;;;;3.85;2.60;;;16.30;65.10;;;;;;6254988;22;19899;-95
2021/05/06 10:41:25;;;;;;;3.50;3.03;;;16.50;64.30;;;;;;6227645;22;20322;-94
2021/05/06 10:43:53;;;;;;;4.68;3.05;;;16.50;63.90;;;;;;6282364;22;20083;-95
2021/05/06 10:46:25;;;;;;;3.17;2.50;;;16.50;63.90;;;;;;6253897;22;20003;-94
2021/05/06 10:48:53;;;;;;;5.60;2.42;;;16.50;63.90;;;;;;6254085;22;20054;-93
2021/05/06 10:51:42;;;;;;;4.82;2.70;;;16.50;64.00;;;;;;6280696;22;20004;-95
2021/05/06 10:54:35;;;;;;;4.53;3.03;;;16.40;64.10;;;;;;6257404;22;20007;-94
2021/05/06 10:57:22;;;;;;;5.55;3.10;;;16.40;64.30;;;;;;6254778;22;20369;-94
2021/05/06 10:59:49;;;;;;;5.30;3.10;;;16.40;64.40;;;;;;6252958;22;20046;-94
2021/05/06 11:02:36;;;;;;;3.55;3.05;;;16.30;64.60;;;;;;6255360;22;20095;-94
2021/05/06 11:05:28;;;;;;;4.60;3.22;;;16.30;65.40;;;;;;6283524;22;20022;-96
2021/05/06 11:08:03;;;;;;;3.42;2.95;;;16.20;65.60;;;;;;6254940;22;20472;-95
2021/05/06 11:10:50;;;;;;;4.20;3.13;;;16.20;66.00;;;;;;6281678;22;20039;-96
2021/05/06 11:13:23;;;;;;;5.13;3.20;;;16.30;66.50;;;;;;6231737;22;20113;-94
2021/05/06 11:16:12;;;;;;;4.25;3.05;;;16.40;66.90;;;;;;6258389;22;20427;-95
2021/05/06 11:18:48;;;;;;;6.03;3.13;;;16.50;67.30;;;;;;6258425;22;20007;-94
2021/05/06 11:21:29;;;;;;;4.53;3.70;;;16.60;67.60;;;;;;6257809;22;20012;-94
2021/05/06 11:24:10;;;;;;;9.10;3.33;;;16.80;68.00;;;;;;6283052;22;20094;-95
2021/05/06 11:27:12;;;;;;;5.22;3.25;;;16.80;67.60;;;;;;6283615;22;20007;-94
2021/05/06 11:29:42;;;;;;;5.28;3.28;;;16.90;68.20;;;;;;6258102;22;20522;-94
2021/05/06 11:32:30;;;;;;;4.35;3.33;;;16.90;67.70;;;;;;6245793;22;20066;-95
2021/05/06 11:34:58;;;;;;;3.53;2.65;;;17.00;67.50;;;;;;6294922;22;20010;-93
2021/05/06 11:37:27;;;;;;;5.05;3.70;;;17.00;67.60;;;;;;6259550;22;20087;-93
2021/05/06 11:40:04;;;;;;;4.40;3.83;;;17.10;67.60;;;;;;6261552;22;20016;-95
2021/05/06 11:42:37;;;;;;;5.13;3.08;;;17.00;67.30;;;;;;6241344;22;20048;-94
2021/05/06 11:45:19;;;;;;;4.33;2.83;;;17.00;67.40;;;;;;6238815;22;20015;-95
2021/05/06 11:47:48;;;;;;;6.38;2.92;;;16.90;67.70;;;;;;6286327;22;20291;-95
2021/05/06 11:50:19;;;;;;;2.88;2.65;;;16.80;68.00;;;;;;6265878;22;20003;-94
2021/05/06 11:52:45;;;;;;;4.55;3.83;;;16.70;68.20;;;;;;6283170;22;20019;-93
2021/05/06 11:55:29;;;;;;;5.85;3.72;;;16.80;68.40;;;;;;6279771;22;20010;-94
2021/05/06 11:57:57;;;;;;;4.30;3.35;;;16.80;68.50;;;;;;6255016;22;20085;-93
2021/05/06 12:00:30;;;;;;;6.38;3.80;;;16.90;68.00;;;;;;6279415;22;20465;-94
2021/05/06 12:03:10;;;;;;;4.88;3.67;;;17.00;67.80;;;;;;6279433;22;20016;-92
2021/05/06 12:05:59;;;;;;;4.05;2.97;;;17.00;67.10;;;;;;6279695;22;20000;-93
2021/05/06 12:08:29;;;;;;;5.10;3.50;;;17.00;66.60;;;;;;6251655;22;20004;-94
2021/05/06 12:10:59;;;;;;;4.03;3.45;;;16.90;66.00;;;;;;6252831;22;20033;-93
2021/05/06 12:13:32;;;;;;;4.78;3.88;;;16.80;65.60;;;;;;6226514;22;20022;-92
2021/05/06 12:16:21;;;;;;;3.80;3.40;;;16.70;65.40;;;;;;6276978;22;20113;-92
2021/05/06 12:19:13;;;;;;;6.05;4.07;;;16.70;64.90;;;;;;6251028;22;20079;-93
2021/05/06 12:21:59;;;;;;;6.35;3.35;;;16.50;65.70;;;;;;6245512;22;20008;-90
2021/05/06 12:24:36;;;;;;;4.82;3.85;;;16.50;65.10;;;;;;6277596;22;20030;-92
2021/05/06 12:27:24;;;;;;;4.25;3.35;;;16.40;65.10;;;;;;6278191;22;20018;-92
2021/05/06 12:29:51;;;;;;;4.18;3.53;;;16.40;65.00;;;;;;6250640;22;20004;-92
2021/05/06 12:32:30;;;;;;;4.30;3.72;;;16.40;64.90;;;;;;6255812;22;20003;-92
2021/05/06 12:34:56;;;;;;;3.30;2.85;;;16.40;64.90;;;;;;6250894;22;20003;-92
2021/05/06 12:37:27;;;;;;;3.42;3.10;;;16.50;65.30;;;;;;6250143;22;20003;-92
2021/05/06 12:39:53;;;;;;;3.78;3.30;;;16.60;64.90;;;;;;6250420;22;20018;-91
2021/05/06 12:42:36;;;;;;;4.50;3.88;;;16.60;64.40;;;;;;6250659;22;20359;-93
2021/05/06 12:45:05;;;;;;;5.05;3.30;;;16.60;64.00;;;;;;6249420;22;20002;-93
2021/05/06 12:47:49;;;;;;;6.15;3.25;;;16.50;64.10;;;;;;6276224;22;20070;-92
2021/05/06 12:50:20;;;;;;;;;;;16.50;64.20;;;;;;6250630;22;20008;-93
2021/05/06 12:52:48;;;;;;;3.58;3.20;;;16.40;64.70;;;;;;6250013;22;19934;-91
2021/05/06 12:55:22;;;;;;;3.90;3.42;;;16.40;64.30;;;;;;6249866;22;20004;-92
2021/05/06 12:58:16;;;;;;;4.32;3.30;;;16.40;64.50;;;;;;6275756;22;20004;-92
2021/05/06 13:00:51;;;;;;;3.38;3.00;;;16.30;64.70;;;;;;6249561;22;20008;-91
2021/05/06 13:03:17;;;;;;;4.30;3.90;;;16.30;64.80;;;;;;6276884;22;20023;-93
2021/05/06 13:05:48;;;;;;;5.45;3.75;;;16.30;64.50;;;;;;6255680;22;20007;-93
2021/05/06 13:08:15;;;;;;;4.85;3.78;;;16.20;64.40;;;;;;6251286;22;20382;-93
2021/05/06 13:10:43;;;;;;;4.40;4.00;;;16.10;64.50;;;;;;6252917;22;20031;-93
2021/05/06 13:13:11;;;;;;;4.20;3.80;;;16.10;64.40;;;;;;6249041;22;20004;-91
2021/05/06 13:15:46;;;;;;;3.90;3.58;;;16.00;64.50;;;;;;6250017;22;20064;-93
2021/05/06 13:18:13;;;;;;;4.60;3.92;;;15.90;64.90;;;;;;6249674;22;20004;-92
2021/05/06 13:20:39;;;;;;;4.40;3.85;;;15.80;64.70;;;;;;6250804;22;20020;-92
2021/05/06 13:23:07;;;;;;;4.88;4.05;;;15.80;64.90;;;;;;6250364;22;20003;-92
2021/05/06 13:25:39;;;;;;;4.50;3.92;;;15.80;65.10;;;;;;6275087;22;20061;-92
2021/05/06 13:28:05;;;;;;;4.53;4.13;;;15.80;65.30;;;;;;6277413;22;20018;-93
2021/05/06 13:30:31;;;;;;;4.93;4.15;;;15.80;65.50;;;;;;6279673;22;20000;-92
2021/05/06 13:33:21;;;;;;;8.35;4.18;;;15.70;65.50;;;;;;6253105;22;20008;-91
2021/05/06 13:36:07;;;;;;;5.95;4.50;;;15.70;65.90;;;;;;6253469;22;20007;-92
2021/05/06 13:38:54;;;;;;;4.53;4.05;;;15.70;65.40;;;;;;6250563;22;20019;-92
2021/05/06 13:41:30;;;;;;;5.97;4.38;;;15.60;65.60;;;;;;6251559;22;20134;-93
2021/05/06 13:43:58;;;;;;;5.05;3.85;;;15.60;65.50;;;;;;6251359;22;20006;-92
2021/05/06 13:46:25;;;;;;;5.05;4.47;;;15.60;65.70;;;;;;6252301;22;20000;-91
2021/05/06 13:48:52;;;;;;;4.28;3.88;;;15.60;65.90;;;;;;6252088;22;20014;-91
2021/05/06 13:51:21;;;;;;;4.35;3.95;;;15.60;66.00;;;;;;6253032;22;20008;-93
2021/05/06 13:53:48;;;;;;;4.93;4.10;;;15.60;65.70;;;;;;6267661;22;20016;-92
2021/05/06 13:56:14;;;;;;;5.68;4.85;;;15.60;65.60;;;;;;6270946;22;20068;-91
2021/05/06 13:58:40;;;;;;;6.00;4.53;;;15.60;65.50;;;;;;6270415;22;20046;-91
2021/05/06 14:01:08;;;;;;;5.53;4.30;;;15.60;65.60;;;;;;6267928;22;20023;-91
2021/05/06 14:03:34;;;;;;;7.50;4.20;;;15.50;65.50;;;;;;6270522;22;20003;-91
2021/05/06 14:06:00;;;;;;;4.70;4.10;;;15.50;65.60;;;;;;6257634;22;20004;-91
2021/05/06 14:08:27;;;;;;;5.80;4.10;;;15.50;65.50;;;;;;6254133;22;20065;-91
2021/05/06 14:10:54;;;;;;;12.23;4.60;;;15.50;65.30;;;;;;6255338;22;20540;-93
2021/05/06 14:13:20;;;;;;;4.45;3.78;;;15.50;65.10;;;;;;6258315;22;20058;-92
2021/05/06 14:15:47;;;;;;;4.50;3.58;;;15.60;65.30;;;;;;6260017;22;20000;-91
2021/05/06 14:18:13;;;;;;;3.95;3.50;;;15.60;65.50;;;;;;6256394;22;19995;-90
2021/05/06 14:20:39;;;;;;;5.30;3.30;;;15.90;65.60;;;;;;6260263;22;20008;-92
2021/05/06 14:23:06;;;;;;;4.68;3.40;;;16.10;65.60;;;;;;6255145;22;20427;-92
2021/05/06 14:25:33;;;;;;;4.13;3.30;;;16.60;65.90;;;;;;6255450;22;20035;-91
2021/05/06 14:27:59;;;;;;;7.13;3.40;;;17.20;64.90;;;;;;6257621;22;20011;-93
2021/05/06 14:30:25;;;;;;;3.95;3.15;;;17.80;63.00;;;;;;6258483;22;20015;-91
2021/05/06 14:32:51;;;;;;;5.15;3.33;;;18.10;61.60;;;;;;6255172;22;20010;-91
2021/05/06 14:35:17;;;;;;;3.78;2.75;;;18.50;60.60;;;;;;6280394;22;20023;-92
2021/05/06 14:37:43;;;;;;;2.95;2.60;;;18.90;60.10;;;;;;6254193;22;20071;-92
2021/05/06 14:40:09;;;;;;;4.18;2.83;;;19.10;58.00;;;;;;6279405;22;20004;-91
2021/05/06 14:42:35;;;;;;;2.55;2.35;;;19.20;57.30;;;;;;6253632;22;20030;-93
2021/05/06 14:45:01;;;;;;;3.17;2.80;;;19.40;57.50;;;;;;6278834;22;19996;-91
2021/05/06 14:47:28;;;;;;;2.35;2.15;;;19.70;57.30;;;;;;6250995;22;20012;-90
2021/05/06 14:49:55;;;;;;;2.85;2.30;;;20.40;58.00;;;;;;6251884;22;20004;-92
2021/05/06 14:52:21;;;;;;;2.45;2.25;;;21.50;56.80;;;;;;6253356;22;20022;-89
2021/05/06 14:54:47;;;;;;;2.88;2.40;;;22.80;56.10;;;;;;6251762;22;20458;-93
2021/05/06 14:57:13;;;;;;;2.63;2.20;;;24.00;54.00;;;;;;6278466;22;20007;-90
2021/05/06 14:59:40;;;;;;;3.08;2.05;;;25.00;50.70;;;;;;6251786;22;20007;-93
2021/05/06 15:02:05;;;;;;;2.35;1.80;;;25.60;48.20;;;;;;6249661;22;20019;-92
2021/05/06 15:04:31;;;;;;;1.55;1.45;;;26.00;47.60;;;;;;6251585;22;20030;-91
2021/05/06 15:06:57;;;;;;;2.17;1.52;;;26.20;45.70;;;;;;6278560;22;20006;-92
2021/05/06 15:09:25;;;;;;;1.60;1.50;;;26.00;44.70;;;;;;6282959;22;20003;-92
2021/05/06 15:11:51;;;;;;;1.80;1.70;;;25.90;43.70;;;;;;6252563;22;20007;-91
2021/05/06 15:14:18;;;;;;;2.78;1.48;;;25.90;44.10;;;;;;6281232;22;19996;-93
2021/05/06 15:16:44;;;;;;;1.48;1.38;;;25.90;43.00;;;;;;6252671;22;20008;-92
2021/05/06 15:19:10;;;;;;;1.33;1.23;;;25.80;43.00;;;;;;6287602;22;20055;-93
2021/05/06 15:21:35;;;;;;;4.47;2.17;;;25.80;42.80;;;;;;6290824;22;20026;-94
2021/05/06 15:24:05;;;;;;;2.40;1.63;;;26.00;42.50;;;;;;6286905;22;19995;-94
2021/05/06 15:26:40;;;;;;;2.08;1.65;;;26.20;42.20;;;;;;6281015;22;20000;-93
2021/05/06 15:31:45;;;;;;;1.52;1.42;;;26.90;41.70;;;;;;6205712;23;20025;-94
2021/05/06 15:34:11;;;;;;;1.60;1.50;;;26.60;40.10;;;;;;6162858;23;20012;-92
2021/05/06 15:36:38;;;;;;;1.58;1.48;;;25.80;39.90;;;;;;6188778;23;20005;-92
2021/05/06 15:39:09;;;;;;;1.75;1.50;;;25.40;40.30;;;;;;6116405;23;20024;-92
2021/05/06 15:41:38;;;;;;;5.82;1.60;;;24.90;39.60;;;;;;6165763;23;20036;-94
2021/05/06 15:44:30;;;;;;;1.98;1.35;;;24.40;40.70;;;;;;6168930;23;20024;-93
2021/05/06 15:48:01;;;;;;;;;;;;;;;;;;;;;
2021/05/06 15:58:40;;;;;;;1.58;1.33;;;23.40;41.00;;;;;;6286402;22;20421;-92
2021/05/06 16:02:08;;;;;;;;;;;;;;;;;;;;;
2021/05/06 16:04:41;;;;;;;1.60;1.50;;;23.20;39.40;;;;;;6125425;23;20062;-92
2021/05/06 16:07:07;;;;;;;1.67;1.57;;;23.30;40.10;;;;;;6105700;23;19998;-90
2021/05/06 16:16:20;;;;;;;2.83;1.90;;;22.40;40.10;;;;;;6279770;22;20545;-91
2021/05/06 16:18:54;;;;;;;1.92;1.48;;;21.60;41.00;;;;;;6267059;22;20011;-91
2021/05/06 16:22:18;;;;;;;2.40;1.73;;;20.80;41.80;;;;;;6247906;23;20054;-91
2021/05/06 16:28:22;;;;;;;2.03;1.63;;;19.50;43.90;;;;;;6128155;23;20453;-92
2021/05/06 16:31:18;;;;;;;1.58;1.48;;;18.90;44.40;;;;;;6138042;23;20028;-92
2021/05/06 16:38:08;;;;;;;3.30;1.58;;;18.10;46.00;;;;;;6259473;23;20031;-92
2021/05/06 16:40:54;;;;;;;2.00;1.43;;;17.80;46.50;;;;;;6212694;23;20008;-92
2021/05/06 16:49:43;;;;;;;1.88;1.67;;;17.00;47.30;;;;;;6248643;23;20019;-90
2021/05/06 16:52:12;;;;;;;2.42;1.65;;;16.80;47.50;;;;;;6222220;23;20428;-94
2021/05/06 16:54:41;;;;;;;1.80;1.52;;;16.70;47.80;;;;;;6225947;23;20008;-92
2021/05/06 16:57:13;;;;;;;3.20;1.58;;;16.50;48.00;;;;;;6228004;23;20003;-94
2021/05/06 17:03:40;;;;;;;;;;;;;;;;;;;;;
2021/05/06 17:06:13;;;;;;;1.92;1.73;;;16.10;49.60;;;;;;6094069;23;20010;-92
2021/05/06 17:12:02;;;;;;;3.63;2.42;;;15.80;49.40;;;;;;6293542;22;20026;-93
2021/05/06 17:14:30;;;;;;;;;;;15.60;50.80;;;;;;6259737;22;20039;-93
2021/05/06 17:16:57;;;;;;;2.42;2.20;;;15.40;51.30;;;;;;6260129;22;19899;-93
2021/05/06 17:19:26;;;;;;;5.63;2.55;;;15.30;50.50;;;;;;6249715;22;20000;-93